Terminal Aerodrome Forecast
Issued by NWS Goodland, KS

Current Version | Previous Version | Text Only | Print | Product List | Glossary On
Versions: 1 2 3 4 5 6 7 8 9 10 11 12 13 14 15 16 17 18 19 20
000
FTUS43 KGLD 271725
TAFGLD
TAF
KGLD 271725Z 2718/2818 18013G20KT P6SM BKN025 BKN100
     FM271900 18013G20KT P6SM VCTS BKN030CB BKN100
     FM280200 15010KT 6SM TSRA OVC040CB
     FM280700 09007KT P6SM VCTS OVC050CB
     FM281000 35010KT 4SM BR OVC012
     FM281500 34015KT P6SM BKN020=

USA.gov is the U.S. government's official web portal to all federal, state and local government web resources and services.